Accueil
METAR-TAF:

METAR-TAF

Aéroports :

Aéroport de Sion

Sion, Suisse

latitude: 46-13N, longitude: 007-20E, altitude: 482 m

Observation

Le bulletin a été fait il y a 52 minutes, à 03:50 UTC
Vent 1 kt de direction variable
Température 16°C
Humidité 72%
Pression 1023 hPa
Visibilité 10 km ou plus
pas de nuages en-dessous de 1500 mètres et pas de cumulonimbus.

METAR: LSGS 060350Z AUTO VRB01KT CAVOK 16/11 Q1023

Heure: 06:42 (04:42 UTC)

Prévision

Le bulletin a été fait il y a 2 heures et 17 minutes, à 02:25 UTC
Prévision valable du 06 à 03 UTC au 06 à 12 UTC
Vent 2 kt de direction variable
Visibilité 10 km ou plus
pas de nuages en-dessous de 1500 mètres et pas de cumulonimbus.
Evoluant progressivement
du 06 à 09 UTC au 06 à 11 UTC
Vent 12 kt de ouest/sud-ouest
Visibilité 10 km ou plus
Quelques nuages à une hauteur de 8000 ft

TAF: LSGS 060225Z 0603/0612 VRB02KT CAVOK BECMG 0609/0611 25012KT 9999 FEW080

Observations et prévisions météorologiques de plus de 4000 aéroports (messages METAR et TAF).

Les stations disponibles sont représentées par des disques jaunes et rouges sur la carte.

Passer la souris dessus pour voir le nom de la station.

Cliquer dessus pour voir les observations et prévisions météorologiques.

Pour changer de carte: cliquez sur les boutons verts avec une croix noire pour zoomer, sur le bouton vert avec un tiret pour effectuer un zoom arrière, ou sur les flèches vertes pour les cartes adjacentes.


METAR-TAF: